Time;durP1;ratioP1;P1;durP2;ratioP2;P2;SDS_P1;SDS_P2;PMS_P1;PMS_P2;Temp;Humidity;BMP_temperature;BMP_pressure;BME280_temperature;BME280_humidity;BME280_pressure;Samples;Min_cycle;Max_cycle;Signal;HPM_P1;HPM_P2
2021/06/01 00:01:13;;;;;;;1897.48;784.55;;;;;;;12.08;91.14;99693.31;1756218;81;21267;-79
2021/06/01 00:04:19;;;;;;;1999.90;999.90;;;;;;;12.01;91.43;99696.87;1756437;81;21191;-80
2021/06/01 00:07:25;;;;;;;1999.90;999.90;;;;;;;11.97;91.87;99691.45;1743408;82;21280;-79
2021/06/01 00:10:30;;;;;;;1999.90;999.90;;;;;;;11.90;92.44;99681.48;1743533;82;21331;-79
2021/06/01 00:13:36;;;;;;;1999.90;999.90;;;;;;;11.85;93.06;99679.34;1743454;82;21715;-79
2021/06/01 00:16:41;;;;;;;1999.90;999.90;;;;;;;11.80;93.56;99685.92;1744049;80;21200;-79
2021/06/01 00:19:47;;;;;;;1999.90;999.90;;;;;;;11.80;93.98;99676.33;1747468;80;21335;-79
2021/06/01 00:22:52;;;;;;;1999.90;829.72;;;;;;;11.77;94.34;99676.22;1769161;81;21296;-79
2021/06/01 00:25:57;;;;;;;1999.90;999.90;;;;;;;11.75;94.61;99669.23;1769122;81;21296;-80
2021/06/01 00:29:02;;;;;;;1999.90;808.53;;;;;;;11.74;95.02;99673.02;1768060;81;21280;-79
2021/06/01 00:32:08;;;;;;;1999.90;799.25;;;;;;;11.71;95.27;99672.04;1769194;81;21300;-79
2021/06/01 00:35:16;;;;;;;1999.90;829.03;;;;;;;11.69;95.78;99665.40;1764190;81;21815;-79
2021/06/01 00:38:20;;;;;;;1999.90;831.80;;;;;;;11.65;96.17;99666.00;1755750;81;21187;-79
2021/06/01 00:41:25;;;;;;;1999.90;999.90;;;;;;;11.63;96.64;99671.69;1756332;81;21159;-79
2021/06/01 00:44:30;;;;;;;1999.90;810.80;;;;;;;11.59;96.94;99667.64;1756092;81;21290;-79
2021/06/01 00:47:34;;;;;;;1999.90;299.10;;;;;;;11.55;97.27;99664.13;1756379;81;21789;-79
2021/06/01 00:50:39;;;;;;;1999.90;860.67;;;;;;;11.50;97.72;99661.46;1756182;80;21270;-79
2021/06/01 00:53:45;;;;;;;1999.90;493.70;;;;;;;11.46;98.20;99657.42;1756382;81;21238;-79
2021/06/01 00:56:51;;;;;;;1999.90;494.20;;;;;;;11.46;98.68;99656.05;1756442;81;21215;-79
2021/06/01 00:59:57;;;;;;;1999.90;249.37;;;;;;;11.45;99.19;99654.36;1755083;81;21835;-79
2021/06/01 01:03:02;;;;;;;1999.90;243.30;;;;;;;11.41;99.52;99650.32;1756377;81;21318;-79
2021/06/01 01:06:38;;;;;;;1999.90;573.60;;;;;;;11.38;99.96;99650.70;1756390;80;21268;-79
2021/06/01 01:09:40;;;;;;;1999.90;846.97;;;;;;;11.34;100.00;99646.70;1739604;81;21334;-79
2021/06/01 01:13:01;;;;;;;1999.90;305.35;;;;;;;11.33;100.00;99639.50;1741694;81;21304;-79
2021/06/01 01:16:06;;;;;;;1999.90;287.40;;;;;;;11.30;100.00;99637.18;1756314;81;21308;-79
2021/06/01 01:19:20;;;;;;;1999.90;999.90;;;;;;;11.29;100.00;99623.14;1739403;82;21715;-79
2021/06/01 01:22:25;;;;;;;1999.90;999.90;;;;;;;11.26;100.00;99628.51;1739586;82;21825;-79
2021/06/01 01:26:07;;;;;;;1999.90;822.65;;;;;;;11.25;100.00;99620.50;1705280;83;21283;-79
2021/06/01 01:29:19;;;;;;;1999.90;999.90;;;;;;;11.24;100.00;99617.42;1739228;82;21185;-79
2021/06/01 01:32:49;;;;;;;1999.90;999.90;;;;;;;11.20;100.00;99627.94;1705249;84;21822;-80
2021/06/01 01:35:57;;;;;;;1887.72;344.62;;;;;;;11.19;100.00;99611.69;1759206;80;21253;-79
2021/06/01 01:39:04;;;;;;;1999.90;999.90;;;;;;;11.14;100.00;99608.17;1769837;80;21284;-79
2021/06/01 01:42:09;;;;;;;1999.90;789.83;;;;;;;11.13;100.00;99598.80;1769959;80;21206;-79
2021/06/01 01:45:30;;;;;;;1999.90;191.28;;;;;;;11.11;100.00;99599.53;1770028;80;21297;-79
2021/06/01 01:52:01;;;;;;;1533.38;555.87;;;;;;;11.06;100.00;99599.28;1739935;82;21307;-79
2021/06/01 01:55:07;;;;;;;1999.90;829.40;;;;;;;11.00;100.00;99584.47;1739641;82;21822;-79
2021/06/01 01:58:11;;;;;;;1999.90;851.70;;;;;;;10.96;100.00;99590.88;1739324;82;21303;-79
2021/06/01 02:01:17;;;;;;;1999.90;999.90;;;;;;;10.94;100.00;99582.53;1705037;84;21271;-79
2021/06/01 02:04:31;;;;;;;1999.90;402.23;;;;;;;10.94;100.00;99585.27;1740277;82;21772;-79
2021/06/01 02:07:38;;;;;;;1999.90;850.22;;;;;;;10.93;100.00;99588.53;1705287;84;21758;-79
2021/06/01 02:10:46;;;;;;;1999.90;999.90;;;;;;;10.91;100.00;99581.02;1733254;82;21264;-79
2021/06/01 02:14:04;;;;;;;1999.90;350.15;;;;;;;10.92;100.00;99580.52;1739847;82;21826;-79
2021/06/01 02:17:06;;;;;;;1999.90;825.83;;;;;;;10.89;100.00;99569.44;1739949;82;21165;-79
2021/06/01 02:20:13;;;;;;;1999.90;824.47;;;;;;;10.89;100.00;99579.02;1758509;81;21285;-79
2021/06/01 02:26:57;;;;;;;1999.90;829.12;;;;;;;10.86;100.00;99564.34;1759163;81;21843;-79
2021/06/01 02:30:26;;;;;;;1999.90;999.90;;;;;;;10.87;100.00;99560.59;1758603;81;21313;-79
2021/06/01 02:33:31;;;;;;;1999.90;565.40;;;;;;;10.89;100.00;99558.49;1759326;81;21301;-79
2021/06/01 02:36:37;;;;;;;1999.90;805.83;;;;;;;10.90;100.00;99557.44;1759058;80;21159;-79
2021/06/01 02:39:41;;;;;;;1999.90;999.90;;;;;;;10.89;100.00;99555.75;1759101;81;21302;-79
2021/06/01 02:42:46;;;;;;;1999.90;999.90;;;;;;;10.90;100.00;99553.86;1759154;81;21298;-79
2021/06/01 02:45:52;;;;;;;1999.90;598.75;;;;;;;10.91;100.00;99561.02;1759034;81;21294;-79
2021/06/01 02:48:58;;;;;;;1999.90;999.90;;;;;;;10.90;100.00;99559.33;1759134;81;21309;-79
2021/06/01 02:52:02;;;;;;;1998.10;801.77;;;;;;;10.91;100.00;99560.50;1759198;81;21263;-78
2021/06/01 02:55:09;;;;;;;1999.90;999.90;;;;;;;10.92;100.00;99554.00;1759191;81;21263;-79
2021/06/01 02:58:18;;;;;;;1999.90;999.90;;;;;;;10.93;100.00;99551.59;1758885;81;21814;-79
2021/06/01 03:01:25;;;;;;;1999.90;999.90;;;;;;;10.93;100.00;99562.53;1757944;81;21722;-79
2021/06/01 03:04:30;;;;;;;1999.90;808.20;;;;;;;10.93;100.00;99550.22;1758326;81;21334;-79
2021/06/01 03:07:35;;;;;;;1999.90;999.90;;;;;;;10.93;100.00;99573.48;1740125;81;21324;-79
2021/06/01 03:10:39;;;;;;;1999.90;999.90;;;;;;;10.90;100.00;99546.50;1740031;82;21189;-79
2021/06/01 03:13:45;;;;;;;1999.90;999.90;;;;;;;10.89;100.00;99553.55;1740069;81;21200;-79
2021/06/01 03:16:50;;;;;;;1999.90;615.85;;;;;;;10.86;100.00;99557.50;1739926;82;21283;-79
2021/06/01 03:19:56;;;;;;;1999.90;630.20;;;;;;;10.86;100.00;99550.66;1747621;80;21656;-79
2021/06/01 03:23:01;;;;;;;1999.90;999.90;;;;;;;10.84;100.00;99546.45;1787344;80;21339;-79
2021/06/01 03:26:06;;;;;;;1933.60;775.15;;;;;;;10.82;100.00;99553.98;1770758;80;21165;-79
2021/06/01 03:29:12;;;;;;;1999.90;999.90;;;;;;;10.83;100.00;99547.50;1756076;81;21863;-79
2021/06/01 03:32:17;;;;;;;1999.90;999.90;;;;;;;10.82;100.00;99553.50;1756348;81;21910;-80
2021/06/01 03:35:22;;;;;;;1999.90;999.90;;;;;;;10.83;100.00;99550.23;1762163;80;21306;-80
2021/06/01 03:38:31;;;;;;;1999.90;999.90;;;;;;;10.79;100.00;99536.09;1759142;80;21188;-79
2021/06/01 03:41:35;;;;;;;1999.90;999.90;;;;;;;10.77;100.00;99534.06;1765289;80;21253;-79
2021/06/01 03:44:40;;;;;;;1999.90;999.90;;;;;;;10.77;100.00;99547.73;1758086;80;21161;-79
2021/06/01 03:47:46;;;;;;;1999.90;999.90;;;;;;;10.75;100.00;99549.31;1758373;80;21321;-79
2021/06/01 03:50:52;;;;;;;1999.90;999.90;;;;;;;10.73;100.00;99538.27;1756388;81;21259;-79
2021/06/01 03:53:57;;;;;;;1999.90;999.90;;;;;;;10.72;100.00;99536.02;1762299;80;21730;-79
2021/06/01 03:57:04;;;;;;;1999.90;999.90;;;;;;;10.72;100.00;99541.48;1756496;81;21268;-79
2021/06/01 04:00:14;;;;;;;1999.90;999.90;;;;;;;10.72;100.00;99549.70;1756511;81;21304;-79
2021/06/01 04:03:20;;;;;;;1999.90;999.90;;;;;;;10.73;100.00;99545.94;1756650;81;21312;-79
2021/06/01 04:06:25;;;;;;;1999.90;999.90;;;;;;;10.78;100.00;99545.35;1766231;80;21783;-79
2021/06/01 04:09:30;;;;;;;1999.90;999.90;;;;;;;10.79;100.00;99553.88;1771436;81;21723;-79
2021/06/01 04:12:36;;;;;;;1999.90;999.90;;;;;;;10.79;100.00;99538.83;1771502;80;21256;-79
2021/06/01 04:15:42;;;;;;;1999.90;999.90;;;;;;;10.80;100.00;99552.83;1769856;81;21268;-79
2021/06/01 04:18:47;;;;;;;1999.90;999.90;;;;;;;10.80;100.00;99531.47;1760543;81;21216;-79
2021/06/01 04:21:52;;;;;;;1999.90;999.90;;;;;;;10.82;100.00;99522.04;1754286;81;21212;-79
2021/06/01 04:24:57;;;;;;;1878.13;609.98;;;;;;;10.83;100.00;99518.78;1756375;81;21825;-79
2021/06/01 04:28:02;;;;;;;1999.90;999.90;;;;;;;10.83;100.00;99520.14;1769596;80;21319;-80
2021/06/01 04:31:07;;;;;;;1999.90;999.90;;;;;;;10.83;100.00;99509.20;1756297;81;21779;-79
2021/06/01 04:34:12;;;;;;;1999.90;999.90;;;;;;;10.83;100.00;99516.89;1756376;81;21328;-80
2021/06/01 04:37:18;;;;;;;1999.90;999.90;;;;;;;10.83;100.00;99518.78;1756427;81;21695;-80
2021/06/01 04:40:24;;;;;;;1999.90;440.35;;;;;;;10.84;100.00;99514.99;1676806;85;21288;-80
2021/06/01 04:43:29;;;;;;;1999.90;999.90;;;;;;;10.85;100.00;99520.78;1756026;81;21822;-80
2021/06/01 04:46:34;;;;;;;1999.90;705.40;;;;;;;10.84;100.00;99518.57;1755858;81;22220;-80
2021/06/01 04:49:39;;;;;;;1999.90;999.90;;;;;;;10.85;100.00;99509.31;1756169;80;21285;-80
2021/06/01 04:52:44;;;;;;;1999.90;999.90;;;;;;;10.84;100.00;99521.83;1758671;80;21941;-81
2021/06/01 04:55:50;;;;;;;1999.90;709.45;;;;;;;10.82;100.00;99519.30;1764717;79;21272;-80
2021/06/01 04:58:54;;;;;;;1999.90;657.80;;;;;;;10.84;100.00;99518.57;1761954;80;21193;-81
2021/06/01 05:01:59;;;;;;;1999.90;999.90;;;;;;;10.85;100.00;99518.05;1755684;81;21792;-81
2021/06/01 05:05:05;;;;;;;1999.90;645.55;;;;;;;10.85;100.00;99509.84;1765860;80;21902;-81
2021/06/01 05:08:10;;;;;;;1999.90;999.90;;;;;;;10.81;100.00;99513.48;1697382;82;21343;-81
2021/06/01 05:11:15;;;;;;;1999.90;999.90;;;;;;;10.79;100.00;99507.90;1775636;80;21315;-81
2021/06/01 05:14:20;;;;;;;1999.90;623.52;;;;;;;10.79;100.00;99499.70;1774072;80;22214;-82
2021/06/01 05:17:25;;;;;;;1999.90;999.90;;;;;;;10.77;100.00;99513.55;1771828;80;21323;-82
2021/06/01 05:20:29;;;;;;;1999.90;999.90;;;;;;;10.77;100.00;99503.13;1753814;80;21949;-82
2021/06/01 05:23:35;;;;;;;1999.90;638.35;;;;;;;10.75;100.00;99501.97;1766684;80;21145;-82
2021/06/01 05:26:40;;;;;;;1999.90;712.95;;;;;;;10.76;100.00;99489.98;1767252;80;21282;-82
2021/06/01 05:29:51;;;;;;;1999.90;999.90;;;;;;;10.77;100.00;99508.08;1711108;81;21308;-82
2021/06/01 05:33:11;;;;;;;1999.90;689.90;;;;;;;10.75;100.00;99504.70;1699741;83;21201;-81
2021/06/01 05:35:59;;;;;;;1999.90;721.87;;;;;;;10.75;100.00;99519.22;1696639;83;21688;-80
2021/06/01 05:39:04;;;;;;;1999.90;999.90;;;;;;;10.77;100.00;99499.87;1701962;83;21197;-81
2021/06/01 05:42:10;;;;;;;1999.90;696.80;;;;;;;10.79;100.00;99517.47;1703283;82;21315;-81
2021/06/01 05:45:14;;;;;;;1999.90;768.55;;;;;;;10.78;100.00;99502.95;1711908;81;21259;-81
2021/06/01 05:48:19;;;;;;;1999.90;999.90;;;;;;;10.77;100.00;99510.81;1712139;81;21609;-81
2021/06/01 05:51:30;;;;;;;1999.90;618.73;;;;;;;10.78;100.00;99515.79;1700905;83;21171;-81
2021/06/01 05:54:32;;;;;;;1999.90;999.90;;;;;;;10.78;100.00;99515.79;1766340;80;22490;-82
2021/06/01 05:57:37;;;;;;;1999.90;768.33;;;;;;;10.76;100.00;99505.02;1758102;80;21759;-82
2021/06/01 06:00:42;;;;;;;1999.90;999.90;;;;;;;10.74;100.00;99505.23;1758362;80;21272;-83
2021/06/01 06:03:49;;;;;;;1999.90;662.52;;;;;;;10.74;100.00;99505.75;1757429;80;21301;-83
2021/06/01 06:06:54;;;;;;;1999.90;999.90;;;;;;;10.74;100.00;99516.70;1748204;80;21287;-83
2021/06/01 06:10:00;;;;;;;1999.90;999.90;;;;;;;10.75;100.00;99495.12;1762379;80;21300;-82
2021/06/01 06:13:05;;;;;;;1999.90;722.17;;;;;;;10.76;100.00;99496.81;1746560;80;21284;-82
2021/06/01 06:16:17;;;;;;;1999.90;999.90;;;;;;;10.80;100.00;99489.91;1766104;80;21358;-81
2021/06/01 06:37:02;;;;;;;1999.90;827.85;;;;;;;10.75;100.00;99475.98;1831405;76;28116;-86
2021/06/01 06:40:07;;;;;;;1999.90;484.43;;;;;;;10.73;100.00;99484.92;1730936;80;21290;-85
2021/06/01 06:43:13;;;;;;;597.65;226.35;;;;;;;10.75;100.00;99491.88;1705060;83;21239;-84
2021/06/01 06:46:29;;;;;;;197.37;60.15;;;;;;;10.77;100.00;99497.13;1715231;82;21909;-84
2021/06/01 06:49:36;;;;;;;30.23;27.60;;;;;;;10.80;100.00;99476.23;1733744;82;21318;-83
2021/06/01 06:52:42;;;;;;;69.10;33.60;;;;;;;10.83;100.00;99477.74;1687521;83;21157;-82
2021/06/01 06:55:48;;;;;;;15.20;14.05;;;;;;;10.86;100.00;99476.80;1714174;83;21873;-84
2021/06/01 06:58:57;;;;;;;10.40;9.65;;;;;;;10.90;100.00;99480.84;1708743;83;21208;-84
2021/06/01 07:02:11;;;;;;;10.23;9.33;;;;;;;10.92;100.00;99480.66;1708986;83;21283;-84
2021/06/01 07:05:23;;;;;;;6.83;6.30;;;;;;;10.90;100.00;99517.77;1706795;83;22422;-83
2021/06/01 07:08:32;;;;;;;12.95;12.03;;;;;;;10.89;100.00;99465.47;1735030;82;21274;-84
2021/06/01 07:11:38;;;;;;;10.30;9.45;;;;;;;10.90;100.00;99463.05;1730997;82;21311;-83
2021/06/01 07:15:14;;;;;;;24.40;15.75;;;;;;;10.92;100.00;99471.92;1701438;82;21342;-84
2021/06/01 07:18:20;;;;;;;13.93;12.68;;;;;;;10.94;100.00;99469.82;1702956;83;21228;-83
2021/06/01 07:21:25;;;;;;;1346.83;84.35;;;;;;;10.96;100.00;99473.72;1705926;83;21299;-83
2021/06/01 07:24:31;;;;;;;7.42;6.87;;;;;;;10.96;100.00;99467.75;1695754;83;21859;-84
2021/06/01 07:27:39;;;;;;;9.80;8.60;;;;;;;10.99;100.00;99482.91;1707807;83;21243;-84
2021/06/01 07:30:46;;;;;;;10.85;9.10;;;;;;;11.04;100.00;99472.73;1708910;83;21341;-84
2021/06/01 07:33:52;;;;;;;6.85;6.35;;;;;;;11.07;100.00;99481.39;1708447;83;21295;-85
2021/06/01 07:36:59;;;;;;;6.65;5.85;;;;;;;11.09;100.00;99471.08;1700902;82;21371;-85
2021/06/01 07:40:06;;;;;;;6.12;5.67;;;;;;;11.12;100.00;99465.74;1679408;83;21810;-85
2021/06/01 07:43:13;;;;;;;10.85;8.20;;;;;;;11.16;100.00;99471.14;1688113;83;21178;-85
2021/06/01 07:46:19;;;;;;;7.60;7.00;;;;;;;11.18;100.00;99463.56;1713701;83;21664;-84
2021/06/01 07:49:25;;;;;;;166.50;16.30;;;;;;;11.17;100.00;99485.14;1693063;84;21301;-84
2021/06/01 07:52:33;;;;;;;6.47;5.92;;;;;;;11.17;100.00;99465.98;1709491;82;21282;-84
2021/06/01 07:55:39;;;;;;;80.07;8.13;;;;;;;11.20;100.00;99460.13;1733955;81;21252;-84
2021/06/01 07:58:45;;;;;;;5.58;3.77;;;;;;;11.21;100.00;99463.17;1723048;82;21240;-84
2021/06/01 08:01:50;;;;;;;5.55;5.08;;;;;;;11.20;100.00;99454.12;1704919;82;21185;-85
2021/06/01 08:04:56;;;;;;;83.70;8.15;;;;;;;11.22;100.00;99441.59;1727537;82;21198;-85
2021/06/01 08:08:04;;;;;;;11.15;10.25;;;;;;;11.25;100.00;99449.41;1690796;83;21323;-84
2021/06/01 08:11:11;;;;;;;136.85;8.03;;;;;;;11.26;100.00;99450.56;1700424;83;21508;-87
2021/06/01 08:14:17;;;;;;;4.62;4.20;;;;;;;11.24;100.00;99440.36;1676939;83;21358;-88
2021/06/01 08:17:22;;;;;;;2.22;2.02;;;;;;;11.25;100.00;99434.36;1687391;83;21745;-88
2021/06/01 08:20:55;;;;;;;4.90;4.05;;;;;;;11.26;100.00;99451.94;1707867;83;21315;-86
2021/06/01 08:23:44;;;;;;;4.15;3.70;;;;;;;11.29;100.00;99454.77;1704179;81;21217;-84
2021/06/01 08:26:50;;;;;;;3.35;2.77;;;;;;;11.33;100.00;99438.27;1681080;83;21326;-85
2021/06/01 08:29:57;;;;;;;128.72;13.55;;;;;;;11.35;100.00;99425.24;1694744;83;21322;-87
2021/06/01 08:33:02;;;;;;;4.37;3.95;;;;;;;11.36;100.00;99435.66;1689240;82;21216;-87
2021/06/01 08:36:07;;;;;;;5.03;3.83;;;;;;;11.40;100.00;99424.63;1709102;83;21180;-89
2021/06/01 08:39:23;;;;;;;2.77;2.33;;;;;;;11.47;100.00;99420.02;1698317;83;21998;-88
2021/06/01 08:42:23;;;;;;;2.80;2.20;;;;;;;11.52;100.00;99406.03;1751201;80;21291;-83
2021/06/01 08:45:29;;;;;;;3.30;3.00;;;;;;;11.59;100.00;99407.44;1739297;80;21270;-83
2021/06/01 08:48:35;;;;;;;3.10;2.35;;;;;;;11.64;100.00;99411.78;1729901;81;21177;-83
2021/06/01 08:51:40;;;;;;;135.90;13.85;;;;;;;11.65;100.00;99412.63;1757448;81;21791;-83
2021/06/01 08:54:44;;;;;;;103.80;19.27;;;;;;;11.64;100.00;99427.38;1741730;81;21802;-83
2021/06/01 08:57:51;;;;;;;4.30;2.80;;;;;;;11.62;100.00;99420.73;1740161;81;21164;-83
2021/06/01 09:00:57;;;;;;;74.70;6.33;;;;;;;11.63;100.00;99431.16;1748652;81;21323;-83
2021/06/01 09:04:06;;;;;;;3.45;2.62;;;;;;;11.63;100.00;99450.34;1756321;80;21338;-85
2021/06/01 09:07:47;;;;;;;5.08;3.22;;;;;;;11.59;100.00;99424.41;1760150;81;21290;-85
2021/06/01 09:14:14;;;;;;;64.53;7.65;;;;;;;11.48;100.00;99445.85;1757395;80;21189;-84
2021/06/01 09:37:45;;;;;;;53.45;19.25;;;;;;;11.37;100.00;99413.55;1827810;76;28485;-82
2021/06/01 09:40:51;;;;;;;21.80;20.05;;;;;;;11.31;100.00;99426.69;1769567;79;21177;-84
2021/06/01 09:44:11;;;;;;;13.53;12.43;;;;;;;11.30;100.00;99407.22;1769649;79;21160;-82
2021/06/01 09:47:17;;;;;;;6.45;5.25;;;;;;;11.33;100.00;99405.95;1728550;80;21584;-83
2021/06/01 09:50:28;;;;;;;319.25;33.38;;;;;;;11.36;100.00;99394.07;1768891;79;21216;-82
2021/06/01 09:53:36;;;;;;;159.97;24.90;;;;;;;11.40;100.00;99393.15;1768022;79;21293;-83
2021/06/01 09:56:41;;;;;;;326.37;32.17;;;;;;;11.42;100.00;99401.98;1766935;80;21770;-83
2021/06/01 09:59:46;;;;;;;16.12;11.75;;;;;;;11.43;100.00;99403.67;1753688;80;21290;-82
2021/06/01 10:03:03;;;;;;;8.98;5.37;;;;;;;11.41;100.00;99387.98;1769203;79;21259;-83
2021/06/01 10:06:09;;;;;;;9.73;8.83;;;;;;;11.41;100.00;99383.34;1768372;79;21153;-83
2021/06/01 10:09:19;;;;;;;132.32;19.37;;;;;;;11.42;100.00;99369.97;1769583;80;22136;-84
2021/06/01 10:12:25;;;;;;;245.27;20.70;;;;;;;11.41;100.00;99398.41;1750896;79;21157;-83
2021/06/01 10:15:34;;;;;;;10.10;6.30;;;;;;;11.40;100.00;99371.24;1766525;80;21637;-83
2021/06/01 10:18:41;;;;;;;493.13;42.10;;;;;;;11.39;100.00;99385.98;1764616;80;21174;-83
2021/06/01 10:21:52;;;;;;;19.50;6.62;;;;;;;11.38;100.00;99389.22;1769324;80;21766;-83
2021/06/01 10:24:54;;;;;;;114.70;12.28;;;;;;;11.37;100.00;99403.12;1763820;80;21148;-82
2021/06/01 10:28:02;;;;;;;5.28;3.83;;;;;;;11.35;100.00;99380.07;1764657;79;21338;-83
2021/06/01 10:31:08;;;;;;;8.90;4.15;;;;;;;11.36;100.00;99364.48;1771796;80;21280;-83
2021/06/01 10:34:20;;;;;;;8.88;4.47;;;;;;;11.39;100.00;99354.50;1749855;80;21297;-83
2021/06/01 10:44:44;;;;;;;94.62;11.97;;;;;;;11.45;100.00;99372.31;1755088;79;21170;-84
2021/06/01 10:51:26;;;;;;;151.00;21.52;;;;;;;11.47;100.00;99365.25;1746573;81;21315;-84
2021/06/01 10:54:16;;;;;;;875.28;85.80;;;;;;;11.47;100.00;99381.16;1741112;80;21260;-84
2021/06/01 10:57:25;;;;;;;9.80;6.28;;;;;;;11.46;100.00;99364.41;1756782;79;21491;-84
2021/06/01 14:36:27;;;;;;;91.87;13.72;;;;;;;10.45;100.00;99394.66;1787228;80;21855;-80
2021/06/01 15:50:28;;;;;;;829.15;112.72;;;;;;;10.20;100.00;99399.64;1714126;83;21355;-80
2021/06/01 16:14:14;;;;;;;1292.75;171.40;;;;;;;10.14;100.00;99401.80;1703784;83;21249;-80
2021/06/01 16:31:11;;;;;;;217.50;49.55;;;;;;;10.08;100.00;99429.91;1652066;86;21380;-80
2021/06/01 16:43:56;;;;;;;696.80;74.42;;;;;;;10.07;100.00;99421.36;1662454;86;21357;-80
2021/06/01 17:04:11;;;;;;;199.77;46.25;;;;;;;10.05;100.00;99419.36;1662478;86;21851;-82
2021/06/01 17:07:18;;;;;;;735.52;67.65;;;;;;;10.07;100.00;99414.53;1661408;86;21317;-81
2021/06/01 17:13:53;;;;;;;118.85;20.97;;;;;;;10.06;100.00;99411.48;1660938;86;21210;-81
2021/06/01 17:17:03;;;;;;;228.45;62.78;;;;;;;10.03;100.00;99422.82;1660828;86;21250;-81
2021/06/01 17:20:29;;;;;;;119.10;32.80;;;;;;;10.01;100.00;99408.49;1661427;85;21464;-80
2021/06/01 17:36:54;;;;;;;120.20;27.27;;;;;;;9.95;100.00;99393.20;1721083;83;21441;-80
2021/06/01 17:40:01;;;;;;;206.28;31.77;;;;;;;9.98;100.00;99389.25;1710079;84;21229;-80
2021/06/01 17:43:13;;;;;;;696.98;115.52;;;;;;;9.98;100.00;99379.17;1707304;84;22619;-80
2021/06/01 17:46:18;;;;;;;1989.70;216.10;;;;;;;9.98;100.00;99410.59;1705969;84;21860;-80
2021/06/01 17:49:27;;;;;;;985.35;130.87;;;;;;;9.99;100.00;99401.86;1714144;83;21355;-80
2021/06/01 17:52:36;;;;;;;155.78;32.55;;;;;;;9.98;100.00;99420.15;1705288;84;21337;-80
2021/06/01 17:55:42;;;;;;;208.07;44.58;;;;;;;10.01;100.00;99409.86;1714274;83;21208;-80
2021/06/01 17:58:47;;;;;;;839.32;116.33;;;;;;;10.04;100.00;99413.05;1705176;84;21839;-80
2021/06/01 18:01:53;;;;;;;644.85;119.30;;;;;;;10.05;100.00;99400.23;1713783;83;21240;-80
2021/06/01 18:05:00;;;;;;;106.17;33.13;;;;;;;10.06;100.00;99401.92;1706389;84;21183;-80
2021/06/01 18:08:33;;;;;;;248.20;52.03;;;;;;;10.08;100.00;99414.88;1712529;83;22509;-81
2021/06/01 18:40:56;;;;;;;1999.90;256.07;;;;;;;10.14;100.00;99414.09;1722783;83;21331;-81
2021/06/01 18:42:11;;;;;;;168.43;35.00;;;;;;;10.14;100.00;99425.87;1721548;83;21306;-81
2021/06/01 19:02:06;;;;;;;380.18;50.78;;;;;;;10.17;100.00;99398.69;1722924;83;21208;-82
2021/06/01 19:22:39;;;;;;;127.45;33.38;;;;;;;10.26;100.00;99415.30;1723053;83;21192;-82
2021/06/01 19:25:14;;;;;;;107.00;33.58;;;;;;;10.29;100.00;99408.06;1722990;83;21310;-82
2021/06/01 19:51:34;;;;;;;138.82;44.05;;;;;;;10.45;100.00;99407.80;1719249;83;21236;-82
2021/06/01 19:54:38;;;;;;;250.78;42.25;;;;;;;10.47;100.00;99410.33;1717666;83;21318;-82
2021/06/01 19:57:44;;;;;;;529.58;75.22;;;;;;;10.49;100.00;99414.56;1718946;83;21236;-82
2021/06/01 20:00:51;;;;;;;534.08;107.78;;;;;;;10.52;100.00;99424.77;1719096;83;21248;-82
2021/06/01 20:03:56;;;;;;;1362.55;113.75;;;;;;;10.54;100.00;99437.71;1719898;83;21335;-82
2021/06/01 20:07:02;;;;;;;175.20;45.95;;;;;;;10.56;100.00;99421.45;1719238;83;21362;-81
2021/06/01 20:10:07;;;;;;;1990.08;256.93;;;;;;;10.60;100.00;99427.38;1719013;83;21319;-81
2021/06/01 20:13:13;;;;;;;166.50;44.73;;;;;;;10.61;100.00;99429.90;1719188;83;21318;-81
2021/06/01 20:16:18;;;;;;;253.47;43.95;;;;;;;10.63;100.00;99419.63;1718939;83;21865;-81
2021/06/01 20:19:24;;;;;;;127.20;37.80;;;;;;;10.65;100.00;99425.73;1717800;83;21287;-81
2021/06/01 20:22:33;;;;;;;164.13;42.40;;;;;;;10.67;100.00;99424.16;1719150;83;21327;-80
2021/06/01 20:25:38;;;;;;;319.10;51.80;;;;;;;10.69;100.00;99416.61;1719085;83;21326;-81
2021/06/01 20:28:48;;;;;;;845.88;95.20;;;;;;;10.72;100.00;99414.83;1718724;83;21354;-81
2021/06/01 20:31:59;;;;;;;413.05;59.55;;;;;;;10.75;100.00;99407.08;1695537;84;21209;-81
2021/06/01 20:35:06;;;;;;;441.48;97.80;;;;;;;10.79;100.00;99399.85;1696198;84;21326;-81
2021/06/01 20:38:12;;;;;;;754.05;116.00;;;;;;;10.80;100.00;99395.54;1708050;84;21232;-81
2021/06/01 20:41:18;;;;;;;396.60;100.58;;;;;;;10.81;100.00;99399.95;1692430;85;21267;-81
2021/06/01 20:44:24;;;;;;;164.97;42.73;;;;;;;10.83;100.00;99398.41;1707880;83;21897;-81
2021/06/01 20:47:31;;;;;;;472.60;61.92;;;;;;;10.86;100.00;99397.46;1692033;85;21287;-81
2021/06/01 20:50:41;;;;;;;358.68;88.30;;;;;;;10.87;100.00;99406.02;1706705;84;21259;-81
2021/06/01 20:53:46;;;;;;;1974.53;268.88;;;;;;;10.89;100.00;99392.97;1693448;85;21890;-81
2021/06/01 20:56:51;;;;;;;183.87;42.20;;;;;;;10.92;100.00;99403.52;1708058;84;21339;-81
2021/06/01 20:59:59;;;;;;;145.45;39.13;;;;;;;10.94;100.00;99396.47;1692159;85;21338;-81
2021/06/01 21:03:04;;;;;;;139.45;42.45;;;;;;;10.98;100.00;99405.97;1708188;84;21311;-81
2021/06/01 21:06:10;;;;;;;1766.45;232.37;;;;;;;10.99;100.00;99404.39;1693170;85;21204;-81
2021/06/01 21:09:17;;;;;;;202.18;42.65;;;;;;;11.02;100.00;99412.73;1707551;84;21311;-82
2021/06/01 21:12:22;;;;;;;150.03;47.93;;;;;;;11.00;100.00;99407.45;1693719;85;21390;-81
2021/06/01 21:15:28;;;;;;;488.52;124.20;;;;;;;11.04;100.00;99401.58;1708025;83;21881;-81
2021/06/01 21:18:35;;;;;;;190.20;40.50;;;;;;;11.05;100.00;99400.00;1693180;85;21243;-81
2021/06/01 21:21:42;;;;;;;1320.45;213.60;;;;;;;11.05;100.00;99394.53;1693077;85;21196;-81
2021/06/01 21:24:48;;;;;;;377.07;73.07;;;;;;;11.05;100.00;99392.31;1707972;84;21335;-81
2021/06/01 21:27:54;;;;;;;187.95;42.85;;;;;;;11.05;100.00;99390.95;1693450;85;21326;-82
2021/06/01 21:31:00;;;;;;;215.82;52.80;;;;;;;11.06;100.00;99385.83;1715782;82;21319;-81
2021/06/01 21:34:14;;;;;;;218.95;52.27;;;;;;;11.07;100.00;99380.67;1723176;83;21275;-82
2021/06/01 21:37:19;;;;;;;154.38;37.98;;;;;;;11.08;100.00;99383.72;1722357;83;21315;-81
2021/06/01 21:40:27;;;;;;;112.90;39.33;;;;;;;11.08;100.00;99371.41;1720993;83;21355;-81
2021/06/01 21:43:32;;;;;;;189.37;39.60;;;;;;;11.08;100.00;99364.56;1722391;83;21362;-82
2021/06/01 21:46:40;;;;;;;517.95;142.57;;;;;;;11.08;100.00;99366.77;1721736;83;21382;-81
2021/06/01 21:49:48;;;;;;;380.15;95.65;;;;;;;11.09;100.00;99364.34;1721695;83;21314;-81
2021/06/01 21:52:55;;;;;;;237.17;58.20;;;;;;;11.10;100.00;99365.19;1723368;83;21196;-81
2021/06/01 21:56:01;;;;;;;190.57;60.63;;;;;;;11.08;100.00;99358.56;1723073;83;21173;-81
2021/06/01 21:59:09;;;;;;;133.97;40.63;;;;;;;11.12;100.00;99367.22;1722204;83;21212;-82
2021/06/01 22:02:16;;;;;;;109.42;36.45;;;;;;;11.15;100.00;99366.30;1722027;83;21204;-82
2021/06/01 22:05:22;;;;;;;149.72;39.33;;;;;;;11.19;100.00;99363.97;1720952;83;21303;-82
2021/06/01 22:08:31;;;;;;;344.45;112.28;;;;;;;11.21;100.00;99366.84;1720970;83;21315;-81
2021/06/01 22:11:36;;;;;;;197.02;43.25;;;;;;;11.21;100.00;99360.52;1722263;83;21323;-82
2021/06/01 22:14:43;;;;;;;147.40;48.85;;;;;;;11.22;100.00;99359.47;1701158;83;21369;-82
2021/06/01 22:17:50;;;;;;;230.05;46.28;;;;;;;11.24;100.00;99362.84;1722050;83;21216;-82
2021/06/01 22:21:00;;;;;;;117.80;36.30;;;;;;;11.25;100.00;99368.66;1721243;83;21959;-82
2021/06/01 22:24:07;;;;;;;164.07;42.45;;;;;;;11.23;100.00;99353.78;1720519;83;21220;-81
2021/06/01 22:27:14;;;;;;;128.12;37.48;;;;;;;11.26;100.00;99355.28;1722051;83;21216;-81